Time;durP1;ratioP1;P1;durP2;ratioP2;P2;SDS_P1;SDS_P2;PMS_P1;PMS_P2;Temp;Humidity;BMP_temperature;BMP_pressure;BME280_temperature;BME280_humidity;BME280_pressure;Samples;Min_cycle;Max_cycle;Signal;HPM_P1;HPM_P2
2021/12/17 00:00:59;;;;;;;0.40;0.32;;;9.60;99.90;;;;;;5035203;28;20211;-80
2021/12/17 00:03:38;;;;;;;0.40;0.30;;;9.60;99.90;;;;;;5035857;28;20204;-80
2021/12/17 00:06:40;;;;;;;0.40;0.32;;;9.60;99.90;;;;;;5035772;28;20187;-78
2021/12/17 00:09:06;;;;;;;0.40;0.40;;;9.70;99.90;;;;;;5035745;28;20277;-75
2021/12/17 00:11:33;;;;;;;0.40;0.30;;;9.70;99.90;;;;;;5035018;28;20194;-80
2021/12/17 00:14:00;;;;;;;0.60;0.60;;;9.70;99.90;;;;;;5034845;28;20211;-80
2021/12/17 00:16:32;;;;;;;0.45;0.30;;;9.70;99.90;;;;;;5034728;28;20226;-80
2021/12/17 00:19:11;;;;;;;0.40;0.30;;;9.70;99.90;;;;;;5035003;28;20192;-80
2021/12/17 00:48:23;;;;;;;2.25;2.15;;;9.70;99.90;;;;;;5039154;28;20205;-79
2021/12/17 00:49:30;;;;;;;0.40;0.30;;;9.70;99.90;;;;;;5038966;28;20284;-79
2021/12/17 00:51:59;;;;;;;0.40;0.30;;;9.70;99.90;;;;;;5038140;28;20202;-79
2021/12/17 00:54:33;;;;;;;0.40;0.30;;;9.70;99.90;;;;;;5040425;28;20205;-79
2021/12/17 00:57:08;;;;;;;0.40;0.30;;;9.70;99.90;;;;;;5039081;28;20185;-79
2021/12/17 00:59:35;;;;;;;0.40;0.30;;;9.70;99.90;;;;;;5039951;28;20183;-79
2021/12/17 01:02:05;;;;;;;0.40;0.30;;;9.70;99.90;;;;;;5047498;28;20220;-80
2021/12/17 01:04:33;;;;;;;0.50;0.50;;;9.70;99.90;;;;;;5057165;28;20205;-79
2021/12/17 01:07:00;;;;;;;0.40;0.30;;;9.70;99.90;;;;;;5055582;28;20196;-79
2021/12/17 01:09:28;;;;;;;0.40;0.40;;;9.80;99.90;;;;;;5056957;28;20183;-79
2021/12/17 01:11:57;;;;;;;0.50;0.40;;;9.80;99.90;;;;;;5057952;28;20187;-80
2021/12/17 01:14:24;;;;;;;0.40;0.30;;;9.80;99.90;;;;;;5057709;28;20176;-79
2021/12/17 01:16:53;;;;;;;0.40;0.40;;;9.80;99.90;;;;;;5056893;28;20206;-80
2021/12/17 01:19:29;;;;;;;0.40;0.30;;;9.80;99.90;;;;;;5055595;28;20195;-79
2021/12/17 01:22:14;;;;;;;0.40;0.30;;;9.70;99.90;;;;;;5058403;28;21081;-79
2021/12/17 01:24:49;;;;;;;0.40;0.30;;;9.70;99.90;;;;;;5058097;28;20201;-80
2021/12/17 01:35:30;;;;;;;0.40;0.32;;;9.70;99.90;;;;;;5058300;28;20177;-80
2021/12/17 01:41:12;;;;;;;0.40;0.30;;;9.70;99.90;;;;;;5056522;28;20254;-79
2021/12/17 01:43:43;;;;;;;0.40;0.40;;;9.70;99.90;;;;;;5057318;28;20206;-78
2021/12/17 01:46:15;;;;;;;0.40;0.30;;;9.60;99.90;;;;;;5057804;28;20195;-80
2021/12/17 01:48:58;;;;;;;1.58;1.48;;;9.60;99.90;;;;;;5054913;28;20195;-79
2021/12/17 01:59:17;;;;;;;0.40;0.30;;;9.70;99.90;;;;;;5036375;28;20198;-78
2021/12/17 01:59:44;;;;;;;0.40;0.30;;;9.70;99.90;;;;;;5034797;28;20290;-78
2021/12/17 02:02:11;;;;;;;0.40;0.30;;;9.70;99.90;;;;;;5035730;28;20214;-78
2021/12/17 02:04:38;;;;;;;0.40;0.30;;;9.70;99.90;;;;;;5035596;28;20200;-77
2021/12/17 02:07:06;;;;;;;0.40;0.30;;;9.70;99.90;;;;;;5033804;28;20203;-78
2021/12/17 02:12:56;;;;;;;0.40;0.30;;;9.70;99.90;;;;;;4997214;28;20229;-77
2021/12/17 02:21:24;;;;;;;0.40;0.40;;;9.70;99.90;;;;;;5032013;28;20264;-78
2021/12/17 02:29:56;;;;;;;0.40;0.30;;;9.70;99.90;;;;;;5032200;28;20236;-78
2021/12/17 02:32:25;;;;;;;0.40;0.30;;;9.70;99.90;;;;;;5032611;28;20192;-78
2021/12/17 02:35:08;;;;;;;0.40;0.30;;;9.70;99.90;;;;;;5032779;28;20198;-78
2021/12/17 02:37:36;;;;;;;0.40;0.30;;;9.70;99.90;;;;;;5032837;28;20199;-78
2021/12/17 02:40:18;;;;;;;0.40;0.30;;;9.60;99.90;;;;;;5031924;28;20259;-78
2021/12/17 02:45:33;;;;;;;0.75;0.75;;;9.50;99.90;;;;;;5032371;28;20212;-78
2021/12/17 02:48:03;;;;;;;0.60;0.60;;;9.40;99.90;;;;;;5032385;28;20288;-77
2021/12/17 02:50:31;;;;;;;0.40;0.30;;;9.50;99.90;;;;;;5032053;28;20585;-77
2021/12/17 02:53:02;;;;;;;0.45;0.32;;;9.50;99.90;;;;;;5032130;28;20204;-78
2021/12/17 02:55:30;;;;;;;0.40;0.30;;;9.50;99.90;;;;;;5032417;28;20222;-78
2021/12/17 02:57:57;;;;;;;0.40;0.30;;;9.50;99.90;;;;;;5031735;28;20202;-77
2021/12/17 03:00:24;;;;;;;1.30;1.20;;;9.50;99.90;;;;;;5031477;28;20219;-78
2021/12/17 03:02:51;;;;;;;0.40;0.30;;;9.60;99.90;;;;;;5031574;28;20245;-78
2021/12/17 03:05:18;;;;;;;0.40;0.30;;;9.60;99.90;;;;;;5031970;28;20199;-77
2021/12/17 03:07:47;;;;;;;0.40;0.35;;;9.60;99.90;;;;;;5031617;28;20204;-77
2021/12/17 03:10:16;;;;;;;0.40;0.40;;;9.60;99.90;;;;;;5031861;28;20708;-77
2021/12/17 03:12:47;;;;;;;0.40;0.38;;;9.50;99.90;;;;;;5033022;28;20281;-77
2021/12/17 03:15:22;;;;;;;0.40;0.30;;;9.50;99.90;;;;;;5034014;28;20191;-77
2021/12/17 03:23:28;;;;;;;0.40;0.40;;;9.60;99.90;;;;;;5032700;28;20179;-78
2021/12/17 03:25:57;;;;;;;1.23;1.10;;;9.60;99.90;;;;;;5032245;28;20220;-76
2021/12/17 03:28:24;;;;;;;0.50;0.40;;;9.60;99.90;;;;;;5032993;28;20684;-78
2021/12/17 03:30:51;;;;;;;1.50;1.40;;;9.60;99.90;;;;;;5033334;28;20226;-78
2021/12/17 03:33:18;;;;;;;0.40;0.40;;;9.60;99.90;;;;;;5032753;28;20604;-78
2021/12/17 03:35:44;;;;;;;0.40;0.40;;;9.60;99.90;;;;;;5033044;28;20195;-77
2021/12/17 03:38:11;;;;;;;0.50;0.30;;;9.60;99.90;;;;;;5032950;28;20199;-78
2021/12/17 03:40:40;;;;;;;0.40;0.30;;;9.50;99.90;;;;;;5032161;28;20222;-77
2021/12/17 03:43:12;;;;;;;13.45;12.32;;;9.50;99.90;;;;;;5031790;28;20226;-78
2021/12/17 03:45:40;;;;;;;0.40;0.40;;;9.50;99.90;;;;;;5032048;28;20180;-76
2021/12/17 03:48:07;;;;;;;0.40;0.30;;;9.50;99.90;;;;;;5030967;28;20199;-77
2021/12/17 03:50:35;;;;;;;0.40;0.32;;;9.50;99.90;;;;;;5031430;28;20219;-77
2021/12/17 03:53:03;;;;;;;0.40;0.30;;;9.50;99.90;;;;;;5032565;28;20736;-78
2021/12/17 03:55:30;;;;;;;0.40;0.32;;;9.40;99.90;;;;;;5036375;28;20564;-78
2021/12/17 03:57:58;;;;;;;0.50;0.50;;;9.40;99.90;;;;;;5037147;28;20203;-77
2021/12/17 04:00:27;;;;;;;0.40;0.30;;;9.40;99.90;;;;;;5035023;28;20230;-78
2021/12/17 04:02:54;;;;;;;0.40;0.40;;;9.50;99.90;;;;;;5034653;28;20238;-78
2021/12/17 04:05:21;;;;;;;1.23;1.13;;;9.50;99.90;;;;;;5035175;28;20198;-78
2021/12/17 04:07:48;;;;;;;1.05;1.00;;;9.50;99.90;;;;;;5034977;28;20206;-77
2021/12/17 04:10:17;;;;;;;0.40;0.30;;;9.60;99.90;;;;;;5034385;28;20241;-77
2021/12/17 04:12:51;;;;;;;0.40;0.40;;;9.50;99.90;;;;;;5035124;28;20286;-78
2021/12/17 04:15:18;;;;;;;0.40;0.32;;;9.50;99.90;;;;;;5035154;28;20247;-78
2021/12/17 04:17:53;;;;;;;1.13;1.10;;;9.50;99.90;;;;;;5034736;28;20680;-78
2021/12/17 04:20:20;;;;;;;0.40;0.30;;;9.50;99.90;;;;;;5034703;28;20632;-77
2021/12/17 04:22:47;;;;;;;0.40;0.30;;;9.60;99.90;;;;;;5034428;28;20227;-77
2021/12/17 04:25:13;;;;;;;0.77;0.77;;;9.60;99.90;;;;;;5034300;28;20198;-77
2021/12/17 04:27:40;;;;;;;0.40;0.30;;;9.60;99.90;;;;;;5034372;28;20195;-78
2021/12/17 04:30:08;;;;;;;0.40;0.40;;;9.60;99.90;;;;;;5034107;28;20219;-77
2021/12/17 04:32:34;;;;;;;0.40;0.30;;;9.50;99.90;;;;;;5034431;28;20223;-75
2021/12/17 04:35:03;;;;;;;0.40;0.30;;;9.60;99.90;;;;;;5034180;28;20199;-78
2021/12/17 04:37:30;;;;;;;0.40;0.30;;;9.50;99.90;;;;;;5034365;28;20735;-77
2021/12/17 04:39:57;;;;;;;0.40;0.30;;;9.50;99.90;;;;;;5033961;28;20232;-76
2021/12/17 04:42:32;;;;;;;0.40;0.30;;;9.40;99.90;;;;;;5034162;28;20213;-77
2021/12/17 04:44:59;;;;;;;0.40;0.30;;;9.50;99.90;;;;;;5034136;28;20305;-78
2021/12/17 04:58:25;;;;;;;0.40;0.40;;;9.40;99.90;;;;;;5033902;28;20174;-77
2021/12/17 05:00:53;;;;;;;0.95;0.95;;;9.30;99.90;;;;;;5033720;28;20218;-77
2021/12/17 05:03:19;;;;;;;0.40;0.32;;;9.30;99.90;;;;;;5033467;28;20309;-77
2021/12/17 05:05:47;;;;;;;0.40;0.30;;;9.20;99.90;;;;;;5033125;28;20199;-78
2021/12/17 05:08:18;;;;;;;0.40;0.30;;;9.20;99.90;;;;;;5033812;28;20660;-77
2021/12/17 05:11:02;;;;;;;0.40;0.30;;;9.20;99.90;;;;;;5033682;28;20215;-77
2021/12/17 05:19:02;;;;;;;0.40;0.30;;;9.10;99.90;;;;;;5002253;28;20183;-77
2021/12/17 05:21:30;;;;;;;0.40;0.30;;;9.10;99.90;;;;;;5033672;28;20216;-76
2021/12/17 05:23:57;;;;;;;0.40;0.30;;;9.10;99.90;;;;;;5033102;28;20214;-77
2021/12/17 05:26:24;;;;;;;0.40;0.40;;;9.10;99.90;;;;;;5033700;28;20194;-77
2021/12/17 05:28:53;;;;;;;0.40;0.40;;;9.10;99.90;;;;;;5033319;28;20195;-78
2021/12/17 05:31:21;;;;;;;0.40;0.30;;;9.10;99.90;;;;;;5032883;28;20280;-77
2021/12/17 05:33:48;;;;;;;0.40;0.30;;;9.10;99.90;;;;;;5033403;28;20244;-77
2021/12/17 05:36:15;;;;;;;0.40;0.30;;;9.10;99.90;;;;;;5033198;28;20557;-77
2021/12/17 05:38:43;;;;;;;0.40;0.30;;;9.00;99.90;;;;;;5033173;28;20198;-78
2021/12/17 05:41:10;;;;;;;0.40;0.40;;;9.10;99.90;;;;;;5032449;28;20230;-77
2021/12/17 05:43:38;;;;;;;0.40;0.30;;;9.00;99.90;;;;;;5033137;28;20225;-76
2021/12/17 05:46:10;;;;;;;0.40;0.30;;;9.00;99.90;;;;;;5033177;28;20572;-77
2021/12/17 05:48:38;;;;;;;0.40;0.30;;;8.90;99.90;;;;;;5032818;28;20256;-76
2021/12/17 05:51:07;;;;;;;0.40;0.30;;;9.00;99.90;;;;;;5033273;28;20229;-78
2021/12/17 05:53:34;;;;;;;0.40;0.30;;;9.00;99.90;;;;;;5034512;28;20198;-78
2021/12/17 05:56:04;;;;;;;0.40;0.30;;;9.00;99.90;;;;;;5034988;28;20195;-78
2021/12/17 05:58:31;;;;;;;0.70;0.70;;;8.90;99.90;;;;;;5033848;28;20199;-78
2021/12/17 06:00:58;;;;;;;0.40;0.40;;;9.00;99.90;;;;;;5035518;28;20234;-76
2021/12/17 06:03:25;;;;;;;1.77;1.65;;;9.00;99.90;;;;;;5035585;28;20215;-78
2021/12/17 06:05:52;;;;;;;0.40;0.40;;;9.00;99.90;;;;;;5035009;28;20823;-78
2021/12/17 06:08:19;;;;;;;0.40;0.30;;;9.00;99.90;;;;;;5034962;28;20219;-78
2021/12/17 06:10:45;;;;;;;0.40;0.30;;;9.00;99.90;;;;;;5034743;28;20703;-78
2021/12/17 06:13:13;;;;;;;0.40;0.30;;;8.90;99.90;;;;;;5036209;28;20191;-78
2021/12/17 06:15:40;;;;;;;0.40;0.30;;;8.90;99.90;;;;;;5034633;28;20195;-76
2021/12/17 06:18:07;;;;;;;0.40;0.32;;;8.90;99.90;;;;;;5033310;28;20199;-78
2021/12/17 06:20:34;;;;;;;0.40;0.30;;;8.90;99.90;;;;;;5033543;28;20226;-76
2021/12/17 06:23:01;;;;;;;0.40;0.40;;;8.90;99.90;;;;;;5034158;28;20220;-78
2021/12/17 06:25:27;;;;;;;0.40;0.30;;;8.90;99.90;;;;;;5035907;28;20307;-78
2021/12/17 06:27:54;;;;;;;0.40;0.30;;;8.90;99.90;;;;;;5034574;28;20207;-78
2021/12/17 06:30:23;;;;;;;0.50;0.40;;;8.90;99.90;;;;;;5033942;28;20219;-78
2021/12/17 06:32:49;;;;;;;0.40;0.30;;;8.90;99.90;;;;;;5035776;28;20195;-78
2021/12/17 06:35:16;;;;;;;0.50;0.50;;;8.90;99.90;;;;;;5035394;28;20198;-78
2021/12/17 06:37:43;;;;;;;0.40;0.30;;;8.90;99.90;;;;;;5034173;28;20609;-76
2021/12/17 06:40:12;;;;;;;0.68;0.68;;;8.90;99.90;;;;;;5033679;28;20223;-79
2021/12/17 06:42:39;;;;;;;0.40;0.30;;;8.90;99.90;;;;;;5034555;28;20700;-76
2021/12/17 06:45:16;;;;;;;0.40;0.30;;;8.90;99.90;;;;;;5034386;28;20199;-78
2021/12/17 06:47:53;;;;;;;0.40;0.40;;;8.80;99.90;;;;;;5034286;28;20737;-78
2021/12/17 06:56:27;;;;;;;0.40;0.30;;;8.90;99.90;;;;;;5033859;28;20313;-78
2021/12/17 06:59:00;;;;;;;0.40;0.30;;;8.90;99.90;;;;;;5034144;28;20613;-78
2021/12/17 07:10:05;;;;;;;0.50;0.30;;;8.80;99.90;;;;;;5006569;28;20545;-78
2021/12/17 07:18:31;;;;;;;0.40;0.30;;;8.80;99.90;;;;;;5033203;28;20667;-78
2021/12/17 07:21:11;;;;;;;0.40;0.30;;;8.80;99.90;;;;;;5032252;28;20251;-78
2021/12/17 07:24:04;;;;;;;2.28;2.17;;;8.80;99.90;;;;;;5032954;28;20245;-78
2021/12/17 07:32:33;;;;;;;0.50;0.40;;;8.80;99.90;;;;;;5037628;28;20187;-77
2021/12/17 07:35:25;;;;;;;0.40;0.30;;;8.80;99.90;;;;;;5038799;28;20224;-77
2021/12/17 07:40:38;;;;;;;0.40;0.30;;;8.80;99.90;;;;;;5037754;28;20379;-77
2021/12/17 07:43:11;;;;;;;1.45;1.35;;;8.90;99.90;;;;;;5038051;28;20278;-78
2021/12/17 07:45:38;;;;;;;0.40;0.30;;;8.90;99.90;;;;;;5037786;28;20203;-78
2021/12/17 07:48:06;;;;;;;0.40;0.30;;;8.90;99.90;;;;;;5038482;28;20200;-79
2021/12/17 07:50:32;;;;;;;0.40;0.40;;;8.90;99.90;;;;;;5037959;28;20735;-78
2021/12/17 07:53:00;;;;;;;0.40;0.30;;;8.80;99.90;;;;;;5037777;28;20195;-78
2021/12/17 07:55:27;;;;;;;0.40;0.30;;;8.80;99.90;;;;;;5038003;28;20210;-77
2021/12/17 07:57:54;;;;;;;0.40;0.30;;;8.90;99.90;;;;;;5038304;28;20198;-77
2021/12/17 08:00:21;;;;;;;0.40;0.30;;;8.80;99.90;;;;;;5038086;28;20726;-77
2021/12/17 08:02:47;;;;;;;0.40;0.30;;;8.90;99.90;;;;;;5037167;28;20222;-78
2021/12/17 08:05:15;;;;;;;0.50;0.30;;;8.80;99.90;;;;;;5038087;28;20198;-78
2021/12/17 08:07:42;;;;;;;0.40;0.40;;;8.80;99.90;;;;;;5038384;28;20202;-77
2021/12/17 08:10:10;;;;;;;0.40;0.35;;;8.70;99.90;;;;;;5037327;28;20222;-77
2021/12/17 08:12:37;;;;;;;0.40;0.30;;;8.70;99.90;;;;;;5037938;28;20195;-77
2021/12/17 08:15:08;;;;;;;0.40;0.30;;;8.70;99.90;;;;;;5038782;28;20251;-78
2021/12/17 08:17:51;;;;;;;0.40;0.30;;;8.70;99.90;;;;;;5033337;28;20213;-77
2021/12/17 08:23:41;;;;;;;20.27;15.18;;;8.70;99.90;;;;;;5021471;28;20258;-78
2021/12/17 08:26:13;;;;;;;1.30;1.20;;;8.80;99.90;;;;;;5017608;28;20285;-76
2021/12/17 08:28:53;;;;;;;0.40;0.30;;;8.80;99.90;;;;;;5018196;28;20206;-77
2021/12/17 08:31:21;;;;;;;0.40;0.30;;;8.80;99.90;;;;;;5017758;28;20749;-78
2021/12/17 08:33:48;;;;;;;0.40;0.30;;;8.80;99.90;;;;;;5017162;28;20206;-78
2021/12/17 08:36:15;;;;;;;0.40;0.30;;;8.80;99.90;;;;;;5025496;28;20206;-77
2021/12/17 08:38:42;;;;;;;0.40;0.30;;;8.80;99.90;;;;;;5025045;28;20207;-78
2021/12/17 08:41:11;;;;;;;0.40;0.30;;;8.80;99.90;;;;;;5013715;28;20234;-78
2021/12/17 08:43:38;;;;;;;0.40;0.30;;;8.80;99.90;;;;;;5014021;28;20251;-77
2021/12/17 08:46:05;;;;;;;0.40;0.40;;;8.80;99.90;;;;;;5015314;28;20546;-79
2021/12/17 08:48:32;;;;;;;0.40;0.40;;;8.80;99.90;;;;;;5014296;28;20206;-77
2021/12/17 08:51:00;;;;;;;0.40;0.40;;;8.80;99.90;;;;;;5015764;28;20712;-78
2021/12/17 08:53:27;;;;;;;0.40;0.30;;;8.80;99.90;;;;;;5014735;28;20203;-77
2021/12/17 08:55:54;;;;;;;6.03;1.35;;;8.80;99.90;;;;;;5015204;28;20195;-78
2021/12/17 08:58:22;;;;;;;0.40;0.30;;;8.90;99.90;;;;;;5014489;28;20542;-78
2021/12/17 09:00:49;;;;;;;0.40;0.30;;;8.90;99.90;;;;;;5014351;28;20219;-77
2021/12/17 09:03:15;;;;;;;0.40;0.30;;;8.90;99.90;;;;;;5014953;28;20215;-78
2021/12/17 09:05:45;;;;;;;0.40;0.32;;;8.90;99.90;;;;;;5014505;28;20673;-76
2021/12/17 09:08:13;;;;;;;0.40;0.30;;;8.90;99.90;;;;;;5013929;28;20195;-78
2021/12/17 09:10:43;;;;;;;0.40;0.30;;;8.90;99.90;;;;;;5014384;28;20219;-78
2021/12/17 09:13:10;;;;;;;0.40;0.30;;;8.80;99.90;;;;;;5021713;28;20245;-78
2021/12/17 09:15:39;;;;;;;0.40;0.30;;;8.80;99.90;;;;;;5021978;28;20226;-77
2021/12/17 09:18:06;;;;;;;0.40;0.30;;;8.80;99.90;;;;;;5015519;28;20200;-78
2021/12/17 09:20:33;;;;;;;0.40;0.30;;;8.80;99.90;;;;;;5021957;28;20215;-78
2021/12/17 09:22:59;;;;;;;0.40;0.40;;;8.80;99.90;;;;;;5013280;28;20222;-78
2021/12/17 09:25:28;;;;;;;0.40;0.30;;;8.70;99.90;;;;;;5013374;28;20359;-78
2021/12/17 09:27:55;;;;;;;0.40;0.30;;;8.80;99.90;;;;;;5014241;28;20200;-78
2021/12/17 09:30:22;;;;;;;0.40;0.30;;;8.90;99.90;;;;;;5013523;28;20215;-77
2021/12/17 09:32:50;;;;;;;0.40;0.40;;;8.90;99.90;;;;;;5021305;28;20192;-78
2021/12/17 09:35:17;;;;;;;0.40;0.40;;;9.00;99.90;;;;;;5014023;28;20202;-78
2021/12/17 09:37:44;;;;;;;0.50;0.40;;;9.00;99.90;;;;;;5013912;28;20565;-78
2021/12/17 09:40:12;;;;;;;0.40;0.30;;;9.00;99.90;;;;;;5013014;28;20234;-78
2021/12/17 09:42:42;;;;;;;0.40;0.40;;;9.00;99.90;;;;;;5013509;28;20227;-77
2021/12/17 09:45:09;;;;;;;0.40;0.30;;;9.00;99.90;;;;;;5013357;28;20196;-78
2021/12/17 09:47:36;;;;;;;0.40;0.35;;;9.00;99.90;;;;;;5013444;28;20204;-78
2021/12/17 09:50:06;;;;;;;0.40;0.40;;;9.00;99.90;;;;;;5012610;28;20234;-78
2021/12/17 09:52:33;;;;;;;0.40;0.30;;;9.10;99.90;;;;;;5012282;28;20578;-77
2021/12/17 09:55:01;;;;;;;0.50;0.30;;;9.00;99.90;;;;;;5013497;28;20554;-78
2021/12/17 09:57:35;;;;;;;41.88;36.53;;;9.00;99.90;;;;;;5013487;28;20206;-78
2021/12/17 10:00:01;;;;;;;0.40;0.30;;;9.00;99.90;;;;;;5012595;28;20215;-77
2021/12/17 10:02:28;;;;;;;0.50;0.40;;;9.00;99.90;;;;;;5012283;28;20234;-78
2021/12/17 10:04:56;;;;;;;0.40;0.30;;;9.00;99.90;;;;;;5012411;28;20223;-78
2021/12/17 10:07:26;;;;;;;0.40;0.30;;;9.00;99.90;;;;;;5013222;28;20196;-79
2021/12/17 10:09:55;;;;;;;0.40;0.30;;;9.00;99.90;;;;;;5037447;28;20199;-77
2021/12/17 10:12:24;;;;;;;0.40;0.30;;;9.10;99.90;;;;;;5043652;28;20690;-78
2021/12/17 10:15:07;;;;;;;0.40;0.30;;;9.10;99.90;;;;;;5012531;28;20254;-78
2021/12/17 10:17:35;;;;;;;0.40;0.30;;;9.20;99.90;;;;;;5018925;28;20283;-77
2021/12/17 10:20:04;;;;;;;0.40;0.30;;;9.20;99.90;;;;;;5030929;28;20225;-78
2021/12/17 10:22:32;;;;;;;0.40;0.30;;;9.20;99.90;;;;;;5014781;28;20561;-77
2021/12/17 10:25:03;;;;;;;0.40;0.30;;;9.30;99.90;;;;;;5026337;28;20216;-78
2021/12/17 10:27:32;;;;;;;0.40;0.30;;;9.30;99.90;;;;;;5012733;28;20230;-77
2021/12/17 10:30:08;;;;;;;0.40;0.30;;;9.30;99.90;;;;;;5012383;28;20230;-78
2021/12/17 10:32:35;;;;;;;0.40;0.30;;;9.30;99.90;;;;;;5028673;28;20197;-77
2021/12/17 10:35:08;;;;;;;0.40;0.30;;;9.20;99.90;;;;;;5052465;28;20187;-78
2021/12/17 10:37:39;;;;;;;0.40;0.30;;;9.30;99.90;;;;;;5051578;28;20205;-78
2021/12/17 10:40:17;;;;;;;0.40;0.30;;;9.30;99.90;;;;;;5051062;28;20229;-78
2021/12/17 10:42:51;;;;;;;0.40;0.30;;;9.20;99.90;;;;;;5051938;28;20199;-77
2021/12/17 10:45:25;;;;;;;0.40;0.30;;;9.30;99.90;;;;;;5052316;28;20693;-78
2021/12/17 10:48:22;;;;;;;0.40;0.30;;;9.30;99.90;;;;;;5053364;28;20201;-78
2021/12/17 10:50:50;;;;;;;0.40;0.30;;;9.30;99.90;;;;;;5053042;28;20225;-79
2021/12/17 10:53:23;;;;;;;0.40;0.30;;;9.30;99.90;;;;;;5053226;28;20616;-78
2021/12/17 10:55:49;;;;;;;0.40;0.30;;;9.40;99.90;;;;;;5053427;28;20256;-77
2021/12/17 10:58:17;;;;;;;0.40;0.32;;;9.30;99.90;;;;;;5051595;28;20205;-78
2021/12/17 11:00:48;;;;;;;0.40;0.30;;;9.30;99.90;;;;;;5051171;28;20276;-77
2021/12/17 11:03:15;;;;;;;0.40;0.30;;;9.30;99.90;;;;;;5051450;28;20222;-78
2021/12/17 11:05:44;;;;;;;0.40;0.40;;;9.30;99.90;;;;;;5052016;28;20208;-78
2021/12/17 11:08:31;;;;;;;0.40;0.30;;;9.30;99.90;;;;;;5052177;28;20193;-76
2021/12/17 11:11:06;;;;;;;0.95;0.95;;;9.20;99.90;;;;;;5051655;28;20508;-77
2021/12/17 11:13:33;;;;;;;0.40;0.30;;;9.20;99.90;;;;;;5051808;28;20182;-78
2021/12/17 11:16:00;;;;;;;0.40;0.30;;;9.10;99.90;;;;;;5051387;28;20198;-78
2021/12/17 11:18:28;;;;;;;0.40;0.30;;;9.10;99.90;;;;;;5051677;28;20213;-77
2021/12/17 11:20:56;;;;;;;0.40;0.30;;;9.20;99.90;;;;;;5050732;28;20716;-77
2021/12/17 11:23:27;;;;;;;0.40;0.30;;;9.20;99.90;;;;;;5051318;28;20206;-78
2021/12/17 11:25:54;;;;;;;0.40;0.30;;;9.30;99.90;;;;;;5051375;28;20213;-77
2021/12/17 11:28:22;;;;;;;0.40;0.30;;;9.20;99.90;;;;;;5051436;28;20198;-78
2021/12/17 11:30:51;;;;;;;0.40;0.40;;;9.20;99.90;;;;;;5050723;28;20225;-78
2021/12/17 11:33:17;;;;;;;0.40;0.30;;;9.20;99.90;;;;;;5051752;28;20194;-79
2021/12/17 11:35:46;;;;;;;0.40;0.30;;;9.20;99.90;;;;;;5051326;28;20198;-77
2021/12/17 11:38:16;;;;;;;0.40;0.30;;;9.20;99.90;;;;;;5053282;28;20201;-77
2021/12/17 11:40:49;;;;;;;0.40;0.30;;;9.20;99.90;;;;;;5050989;28;20234;-77
2021/12/17 11:43:48;;;;;;;0.40;0.30;;;9.20;99.90;;;;;;5050968;28;20198;-77
2021/12/17 11:46:15;;;;;;;0.45;0.45;;;9.20;99.90;;;;;;5050878;28;20198;-77
2021/12/17 11:48:49;;;;;;;0.40;0.30;;;9.20;99.90;;;;;;5051159;28;20198;-77
2021/12/17 11:51:18;;;;;;;0.40;0.30;;;9.20;99.90;;;;;;5051671;28;20214;-77
2021/12/17 11:53:59;;;;;;;0.40;0.30;;;9.10;99.90;;;;;;5051764;28;20199;-76
2021/12/17 11:56:41;;;;;;;0.40;0.30;;;9.10;99.90;;;;;;5053320;28;20220;-77
2021/12/17 11:59:10;;;;;;;0.40;0.30;;;9.10;99.90;;;;;;5051707;28;20194;-78
2021/12/17 12:01:59;;;;;;;0.40;0.40;;;9.20;99.90;;;;;;5051726;28;20248;-77
2021/12/17 12:04:40;;;;;;;0.40;0.30;;;9.20;99.90;;;;;;5052467;28;20264;-79
2021/12/17 12:07:09;;;;;;;0.40;0.40;;;9.20;99.90;;;;;;5052069;28;20549;-79
2021/12/17 12:10:21;;;;;;;0.40;0.30;;;9.20;99.90;;;;;;5052540;28;20202;-79
2021/12/17 12:13:05;;;;;;;0.40;0.30;;;9.20;99.90;;;;;;4990987;28;20279;-79
2021/12/17 12:15:38;;;;;;;0.50;0.50;;;9.10;99.90;;;;;;5053180;28;20204;-78
2021/12/17 12:18:14;;;;;;;0.40;0.30;;;9.10;99.90;;;;;;5056420;28;20208;-79
2021/12/17 12:20:57;;;;;;;0.40;0.30;;;9.10;99.90;;;;;;5056071;28;20217;-78
2021/12/17 12:23:36;;;;;;;0.40;0.30;;;9.10;99.90;;;;;;5056518;28;20201;-78
2021/12/17 12:26:19;;;;;;;0.47;0.47;;;9.10;99.90;;;;;;5055951;28;20224;-79
2021/12/17 12:29:12;;;;;;;0.40;0.30;;;9.10;99.90;;;;;;5056781;28;20192;-76
2021/12/17 12:32:13;;;;;;;0.40;0.30;;;9.20;99.90;;;;;;5053550;28;20221;-77
2021/12/17 12:34:43;;;;;;;0.40;0.30;;;9.20;99.90;;;;;;5056666;28;20198;-77
2021/12/17 12:37:16;;;;;;;0.47;0.40;;;9.10;99.90;;;;;;5055816;28;20221;-79
2021/12/17 12:40:03;;;;;;;0.40;0.30;;;9.20;99.90;;;;;;5055786;28;20198;-78
2021/12/17 12:45:15;;;;;;;0.40;0.30;;;9.10;99.90;;;;;;5082780;22;20230;-81
2021/12/17 12:47:55;;;;;;;0.40;0.30;;;9.10;99.90;;;;;;5037494;28;20191;-81
2021/12/17 12:50:24;;;;;;;0.40;0.30;;;9.00;99.90;;;;;;5039370;28;20274;-80
2021/12/17 12:52:53;;;;;;;0.40;0.30;;;8.90;99.90;;;;;;5038640;28;20229;-81
2021/12/17 12:55:22;;;;;;;0.40;0.38;;;8.90;99.90;;;;;;5039062;28;20558;-81
2021/12/17 12:57:51;;;;;;;0.40;0.30;;;8.90;99.90;;;;;;5038806;28;20224;-81
2021/12/17 13:00:22;;;;;;;0.40;0.30;;;9.00;99.90;;;;;;5037636;28;20201;-80
2021/12/17 13:02:52;;;;;;;0.40;0.30;;;9.00;99.90;;;;;;5038823;28;20179;-80
2021/12/17 13:05:19;;;;;;;0.40;0.30;;;9.00;99.90;;;;;;5038481;28;20225;-80
2021/12/17 13:07:50;;;;;;;0.40;0.30;;;9.00;99.90;;;;;;5038729;28;20568;-81
2021/12/17 13:10:21;;;;;;;0.40;0.30;;;9.00;99.90;;;;;;5038257;28;20568;-81
2021/12/17 13:12:58;;;;;;;0.40;0.30;;;9.00;99.90;;;;;;5038279;28;20187;-81
2021/12/17 13:15:40;;;;;;;0.40;0.30;;;9.00;99.90;;;;;;5038018;28;20240;-81
2021/12/17 13:21:03;;;;;;;0.40;0.30;;;9.10;99.90;;;;;;5037567;28;20521;-80
2021/12/17 13:23:37;;;;;;;0.40;0.40;;;9.10;99.90;;;;;;5038281;28;20222;-81
2021/12/17 13:26:09;;;;;;;0.40;0.35;;;9.10;99.90;;;;;;5037807;28;20266;-81
2021/12/17 13:28:47;;;;;;;0.40;0.30;;;9.10;99.90;;;;;;5038450;28;20207;-77
2021/12/17 13:31:33;;;;;;;0.40;0.30;;;9.20;99.90;;;;;;5038228;28;20206;-81
2021/12/17 13:34:00;;;;;;;0.40;0.30;;;9.20;99.90;;;;;;5037564;28;20216;-80
2021/12/17 13:36:27;;;;;;;0.40;0.30;;;9.20;99.90;;;;;;5037576;28;20207;-79
2021/12/17 13:38:57;;;;;;;0.40;0.40;;;9.20;99.90;;;;;;5037886;28;20573;-80
2021/12/17 13:41:37;;;;;;;0.40;0.38;;;9.20;99.90;;;;;;5037757;28;20194;-78
2021/12/17 13:44:04;;;;;;;0.40;0.30;;;9.30;99.90;;;;;;5037853;28;20230;-82
2021/12/17 13:46:35;;;;;;;0.40;0.30;;;9.20;99.90;;;;;;5037673;28;20210;-80
2021/12/17 13:49:03;;;;;;;0.40;0.30;;;9.20;99.90;;;;;;5041130;28;20190;-79
2021/12/17 13:51:30;;;;;;;0.40;0.40;;;9.20;99.90;;;;;;5038943;28;20216;-81
2021/12/17 13:53:58;;;;;;;0.40;0.40;;;9.10;99.90;;;;;;5037786;28;20620;-80
2021/12/17 13:56:24;;;;;;;0.40;0.40;;;9.00;99.90;;;;;;5037516;28;20210;-80
2021/12/17 13:58:51;;;;;;;0.40;0.40;;;9.00;99.90;;;;;;5037147;28;20195;-80
2021/12/17 14:01:22;;;;;;;0.40;0.30;;;9.00;99.90;;;;;;5038554;28;20196;-81
2021/12/17 14:03:50;;;;;;;0.40;0.40;;;9.00;99.90;;;;;;5038391;28;20695;-80
2021/12/17 14:06:22;;;;;;;0.40;0.40;;;8.90;99.90;;;;;;5038481;28;20207;-81
2021/12/17 14:08:51;;;;;;;0.77;0.77;;;8.80;99.90;;;;;;5037348;28;20825;-79
2021/12/17 14:11:22;;;;;;;0.40;0.40;;;8.80;99.90;;;;;;5037443;28;20202;-80
2021/12/17 14:13:49;;;;;;;0.82;0.80;;;8.70;99.90;;;;;;5037261;28;20635;-80
2021/12/17 14:16:28;;;;;;;0.40;0.40;;;8.60;99.90;;;;;;5036958;28;20199;-79
2021/12/17 14:18:58;;;;;;;0.40;0.30;;;8.60;99.90;;;;;;5037074;28;20194;-80
2021/12/17 14:21:28;;;;;;;0.88;0.85;;;8.50;99.90;;;;;;5037139;28;20668;-79
2021/12/17 14:23:55;;;;;;;0.45;0.45;;;8.50;99.90;;;;;;5036999;28;20222;-79
2021/12/17 14:26:27;;;;;;;0.40;0.40;;;8.50;99.90;;;;;;5036964;28;20202;-80
2021/12/17 14:28:54;;;;;;;0.40;0.40;;;8.50;99.90;;;;;;5036440;28;20542;-80
2021/12/17 14:31:25;;;;;;;0.40;0.30;;;8.50;99.90;;;;;;5037028;28;20209;-80
2021/12/17 14:33:57;;;;;;;0.40;0.30;;;8.50;99.90;;;;;;5036634;28;20718;-80
2021/12/17 14:36:37;;;;;;;0.50;0.40;;;8.50;99.90;;;;;;5037273;28;20215;-80
2021/12/17 14:39:08;;;;;;;0.40;0.40;;;8.50;99.90;;;;;;5035027;28;20546;-80
2021/12/17 14:41:43;;;;;;;0.40;0.40;;;8.40;99.90;;;;;;5036940;28;20187;-79
2021/12/17 14:44:22;;;;;;;0.40;0.40;;;8.40;99.90;;;;;;5035735;28;20285;-79
2021/12/17 14:46:52;;;;;;;0.40;0.40;;;8.40;99.90;;;;;;5037175;28;20738;-79
2021/12/17 14:57:14;;;;;;;0.40;0.40;;;8.40;99.90;;;;;;5036202;28;20565;-80
2021/12/17 15:00:35;;;;;;;0.40;0.30;;;8.40;99.90;;;;;;5023478;28;20303;-80
2021/12/17 15:03:19;;;;;;;0.40;0.30;;;8.40;99.90;;;;;;5036509;28;20217;-80
2021/12/17 15:05:46;;;;;;;0.40;0.35;;;8.30;99.90;;;;;;5036501;28;20291;-80
2021/12/17 15:08:14;;;;;;;0.40;0.40;;;8.30;99.90;;;;;;5036618;28;20679;-80
2021/12/17 15:10:41;;;;;;;0.40;0.30;;;8.30;99.90;;;;;;5035401;28;20210;-80
2021/12/17 15:13:08;;;;;;;0.40;0.40;;;8.30;99.90;;;;;;5036301;28;20554;-80
2021/12/17 15:15:37;;;;;;;0.40;0.30;;;8.20;99.90;;;;;;5035602;28;20201;-78
2021/12/17 15:18:06;;;;;;;0.40;0.40;;;8.20;99.90;;;;;;5037430;28;20213;-78
2021/12/17 15:20:34;;;;;;;0.40;0.40;;;8.20;99.90;;;;;;5037259;28;20224;-78
2021/12/17 15:23:04;;;;;;;0.40;0.40;;;8.20;99.90;;;;;;5037868;28;20217;-79
2021/12/17 15:25:33;;;;;;;0.40;0.40;;;8.20;99.90;;;;;;5038212;28;20229;-80